sensor_id;sensor_type;location;lat;lon;timestamp;P1;durP1;ratioP1;P2;durP2;ratioP2
8399;SDS011;4237;47.030;15.396;2023-05-07T00:00:41;7.17;;;6.27;;
8399;SDS011;4237;47.030;15.396;2023-05-07T00:03:09;7.13;;;6.43;;
8399;SDS011;4237;47.030;15.396;2023-05-07T00:05:38;7.30;;;6.60;;
8399;SDS011;4237;47.030;15.396;2023-05-07T00:08:27;7.50;;;6.80;;
8399;SDS011;4237;47.030;15.396;2023-05-07T00:10:56;7.23;;;6.53;;
8399;SDS011;4237;47.030;15.396;2023-05-07T00:13:24;7.47;;;6.77;;
8399;SDS011;4237;47.030;15.396;2023-05-07T00:15:52;8.33;;;7.60;;
8399;SDS011;4237;47.030;15.396;2023-05-07T00:18:20;9.17;;;6.83;;
8399;SDS011;4237;47.030;15.396;2023-05-07T00:20:49;8.57;;;6.67;;
8399;SDS011;4237;47.030;15.396;2023-05-07T00:23:17;7.60;;;6.60;;
8399;SDS011;4237;47.030;15.396;2023-05-07T00:25:46;8.70;;;7.10;;
8399;SDS011;4237;47.030;15.396;2023-05-07T00:28:14;8.30;;;6.63;;
8399;SDS011;4237;47.030;15.396;2023-05-07T00:30:42;8.17;;;7.37;;
8399;SDS011;4237;47.030;15.396;2023-05-07T00:33:10;8.43;;;7.63;;
8399;SDS011;4237;47.030;15.396;2023-05-07T00:35:38;9.27;;;7.27;;
8399;SDS011;4237;47.030;15.396;2023-05-07T00:38:06;8.60;;;7.70;;
8399;SDS011;4237;47.030;15.396;2023-05-07T00:40:35;8.30;;;7.47;;
8399;SDS011;4237;47.030;15.396;2023-05-07T00:43:03;8.73;;;7.10;;
8399;SDS011;4237;47.030;15.396;2023-05-07T00:45:32;8.80;;;7.57;;
8399;SDS011;4237;47.030;15.396;2023-05-07T00:48:01;8.93;;;7.60;;
8399;SDS011;4237;47.030;15.396;2023-05-07T00:50:30;8.13;;;7.10;;
8399;SDS011;4237;47.030;15.396;2023-05-07T00:52:59;7.70;;;6.93;;
8399;SDS011;4237;47.030;15.396;2023-05-07T00:55:28;8.80;;;6.23;;
8399;SDS011;4237;47.030;15.396;2023-05-07T00:57:56;6.90;;;6.20;;
8399;SDS011;4237;47.030;15.396;2023-05-07T01:00:25;7.13;;;6.40;;
8399;SDS011;4237;47.030;15.396;2023-05-07T01:02:53;6.97;;;6.27;;
8399;SDS011;4237;47.030;15.396;2023-05-07T01:05:21;8.03;;;6.40;;
8399;SDS011;4237;47.030;15.396;2023-05-07T01:07:50;7.80;;;6.37;;
8399;SDS011;4237;47.030;15.396;2023-05-07T01:10:20;6.80;;;6.17;;
8399;SDS011;4237;47.030;15.396;2023-05-07T01:12:48;9.77;;;6.33;;
8399;SDS011;4237;47.030;15.396;2023-05-07T01:15:17;7.60;;;6.90;;
8399;SDS011;4237;47.030;15.396;2023-05-07T01:17:45;6.77;;;6.07;;
8399;SDS011;4237;47.030;15.396;2023-05-07T01:20:14;7.47;;;6.67;;
8399;SDS011;4237;47.030;15.396;2023-05-07T01:22:43;6.50;;;5.90;;
8399;SDS011;4237;47.030;15.396;2023-05-07T01:25:11;6.37;;;5.30;;
8399;SDS011;4237;47.030;15.396;2023-05-07T01:27:40;5.60;;;5.00;;
8399;SDS011;4237;47.030;15.396;2023-05-07T01:30:09;5.30;;;4.80;;
8399;SDS011;4237;47.030;15.396;2023-05-07T01:32:41;8.40;;;4.60;;
8399;SDS011;4237;47.030;15.396;2023-05-07T01:35:11;5.20;;;4.70;;
8399;SDS011;4237;47.030;15.396;2023-05-07T01:37:39;5.77;;;5.03;;
8399;SDS011;4237;47.030;15.396;2023-05-07T01:40:09;5.70;;;4.93;;
8399;SDS011;4237;47.030;15.396;2023-05-07T01:42:37;7.17;;;4.37;;
8399;SDS011;4237;47.030;15.396;2023-05-07T01:45:06;5.20;;;4.70;;
8399;SDS011;4237;47.030;15.396;2023-05-07T01:47:35;4.27;;;3.87;;
8399;SDS011;4237;47.030;15.396;2023-05-07T01:50:10;4.50;;;3.83;;
8399;SDS011;4237;47.030;15.396;2023-05-07T01:52:36;4.33;;;3.93;;
8399;SDS011;4237;47.030;15.396;2023-05-07T01:55:06;4.20;;;3.90;;
8399;SDS011;4237;47.030;15.396;2023-05-07T01:57:34;4.50;;;4.10;;
8399;SDS011;4237;47.030;15.396;2023-05-07T02:00:03;4.37;;;3.97;;
8399;SDS011;4237;47.030;15.396;2023-05-07T02:02:32;3.90;;;3.60;;
8399;SDS011;4237;47.030;15.396;2023-05-07T02:05:00;5.47;;;3.60;;
8399;SDS011;4237;47.030;15.396;2023-05-07T02:07:29;4.20;;;3.80;;
8399;SDS011;4237;47.030;15.396;2023-05-07T02:09:57;4.20;;;3.90;;
8399;SDS011;4237;47.030;15.396;2023-05-07T02:12:25;10.23;;;4.20;;
8399;SDS011;4237;47.030;15.396;2023-05-07T02:14:53;4.40;;;4.00;;
8399;SDS011;4237;47.030;15.396;2023-05-07T02:17:22;4.53;;;3.80;;
8399;SDS011;4237;47.030;15.396;2023-05-07T02:19:50;5.40;;;4.90;;
8399;SDS011;4237;47.030;15.396;2023-05-07T02:22:18;5.30;;;4.80;;
8399;SDS011;4237;47.030;15.396;2023-05-07T02:24:46;4.90;;;4.50;;
8399;SDS011;4237;47.030;15.396;2023-05-07T02:27:14;5.20;;;4.70;;
8399;SDS011;4237;47.030;15.396;2023-05-07T02:29:43;5.53;;;4.43;;
8399;SDS011;4237;47.030;15.396;2023-05-07T02:32:11;7.97;;;5.17;;
8399;SDS011;4237;47.030;15.396;2023-05-07T02:34:39;7.73;;;4.60;;
8399;SDS011;4237;47.030;15.396;2023-05-07T02:37:07;5.33;;;4.47;;
8399;SDS011;4237;47.030;15.396;2023-05-07T02:39:35;5.43;;;4.83;;
8399;SDS011;4237;47.030;15.396;2023-05-07T02:42:04;5.33;;;4.70;;
8399;SDS011;4237;47.030;15.396;2023-05-07T02:44:32;5.00;;;4.50;;
8399;SDS011;4237;47.030;15.396;2023-05-07T02:47:02;4.90;;;4.40;;
8399;SDS011;4237;47.030;15.396;2023-05-07T02:49:30;4.43;;;4.03;;
8399;SDS011;4237;47.030;15.396;2023-05-07T02:51:58;4.17;;;3.77;;
8399;SDS011;4237;47.030;15.396;2023-05-07T02:54:26;4.57;;;3.90;;
8399;SDS011;4237;47.030;15.396;2023-05-07T02:56:55;4.47;;;3.87;;
8399;SDS011;4237;47.030;15.396;2023-05-07T02:59:23;4.27;;;3.87;;
8399;SDS011;4237;47.030;15.396;2023-05-07T03:01:53;4.20;;;3.80;;
8399;SDS011;4237;47.030;15.396;2023-05-07T03:04:21;4.47;;;3.83;;
8399;SDS011;4237;47.030;15.396;2023-05-07T03:06:49;5.73;;;3.70;;
8399;SDS011;4237;47.030;15.396;2023-05-07T03:09:17;4.57;;;4.10;;
8399;SDS011;4237;47.030;15.396;2023-05-07T03:11:46;4.27;;;3.73;;
8399;SDS011;4237;47.030;15.396;2023-05-07T03:14:14;6.47;;;3.77;;
8399;SDS011;4237;47.030;15.396;2023-05-07T03:16:42;4.43;;;3.80;;
8399;SDS011;4237;47.030;15.396;2023-05-07T03:19:11;4.33;;;3.93;;
8399;SDS011;4237;47.030;15.396;2023-05-07T03:21:39;5.30;;;4.27;;
8399;SDS011;4237;47.030;15.396;2023-05-07T03:24:07;6.63;;;5.20;;
8399;SDS011;4237;47.030;15.396;2023-05-07T03:26:35;4.90;;;4.40;;
8399;SDS011;4237;47.030;15.396;2023-05-07T03:29:03;4.73;;;4.00;;
8399;SDS011;4237;47.030;15.396;2023-05-07T03:31:32;4.80;;;4.30;;
8399;SDS011;4237;47.030;15.396;2023-05-07T03:34:00;4.67;;;4.17;;
8399;SDS011;4237;47.030;15.396;2023-05-07T03:36:29;4.77;;;4.20;;
8399;SDS011;4237;47.030;15.396;2023-05-07T03:38:57;4.20;;;3.80;;
8399;SDS011;4237;47.030;15.396;2023-05-07T03:41:26;4.87;;;4.13;;
8399;SDS011;4237;47.030;15.396;2023-05-07T03:43:54;4.50;;;4.10;;
8399;SDS011;4237;47.030;15.396;2023-05-07T03:46:22;4.43;;;4.03;;
8399;SDS011;4237;47.030;15.396;2023-05-07T03:48:52;4.40;;;4.00;;
8399;SDS011;4237;47.030;15.396;2023-05-07T03:51:20;4.60;;;4.20;;
8399;SDS011;4237;47.030;15.396;2023-05-07T03:53:48;4.60;;;4.20;;
8399;SDS011;4237;47.030;15.396;2023-05-07T03:56:16;5.00;;;4.20;;
8399;SDS011;4237;47.030;15.396;2023-05-07T03:58:45;6.30;;;4.03;;
8399;SDS011;4237;47.030;15.396;2023-05-07T04:01:13;4.60;;;4.20;;
8399;SDS011;4237;47.030;15.396;2023-05-07T04:03:41;4.93;;;4.00;;
8399;SDS011;4237;47.030;15.396;2023-05-07T04:06:10;7.30;;;5.03;;
8399;SDS011;4237;47.030;15.396;2023-05-07T04:08:39;4.43;;;4.03;;
8399;SDS011;4237;47.030;15.396;2023-05-07T04:11:07;4.50;;;4.03;;
8399;SDS011;4237;47.030;15.396;2023-05-07T04:13:35;6.03;;;5.20;;
8399;SDS011;4237;47.030;15.396;2023-05-07T04:16:04;6.00;;;4.70;;
8399;SDS011;4237;47.030;15.396;2023-05-07T04:18:32;5.23;;;4.47;;
8399;SDS011;4237;47.030;15.396;2023-05-07T04:21:01;5.97;;;5.30;;
8399;SDS011;4237;47.030;15.396;2023-05-07T04:23:29;6.83;;;4.83;;
8399;SDS011;4237;47.030;15.396;2023-05-07T04:25:57;7.10;;;4.67;;
8399;SDS011;4237;47.030;15.396;2023-05-07T04:28:25;6.17;;;5.03;;
8399;SDS011;4237;47.030;15.396;2023-05-07T04:30:53;5.47;;;4.90;;
8399;SDS011;4237;47.030;15.396;2023-05-07T04:33:22;6.40;;;4.97;;
8399;SDS011;4237;47.030;15.396;2023-05-07T04:35:50;9.23;;;4.40;;
8399;SDS011;4237;47.030;15.396;2023-05-07T04:38:18;6.97;;;4.60;;
8399;SDS011;4237;47.030;15.396;2023-05-07T04:40:46;5.33;;;4.43;;
8399;SDS011;4237;47.030;15.396;2023-05-07T04:43:14;6.70;;;4.90;;
8399;SDS011;4237;47.030;15.396;2023-05-07T04:45:43;7.27;;;4.30;;
8399;SDS011;4237;47.030;15.396;2023-05-07T04:48:11;9.00;;;4.83;;
8399;SDS011;4237;47.030;15.396;2023-05-07T04:50:41;5.33;;;4.83;;
8399;SDS011;4237;47.030;15.396;2023-05-07T04:53:09;8.67;;;4.97;;
8399;SDS011;4237;47.030;15.396;2023-05-07T04:55:37;5.37;;;4.60;;
8399;SDS011;4237;47.030;15.396;2023-05-07T04:58:05;5.60;;;4.30;;
8399;SDS011;4237;47.030;15.396;2023-05-07T05:00:34;4.67;;;4.13;;
8399;SDS011;4237;47.030;15.396;2023-05-07T05:03:02;5.00;;;4.30;;
8399;SDS011;4237;47.030;15.396;2023-05-07T05:05:30;4.73;;;3.87;;
8399;SDS011;4237;47.030;15.396;2023-05-07T05:07:58;4.50;;;3.90;;
8399;SDS011;4237;47.030;15.396;2023-05-07T05:10:27;5.13;;;4.40;;
8399;SDS011;4237;47.030;15.396;2023-05-07T05:12:55;5.13;;;4.63;;
8399;SDS011;4237;47.030;15.396;2023-05-07T05:15:23;5.00;;;4.50;;
8399;SDS011;4237;47.030;15.396;2023-05-07T05:17:51;4.43;;;4.03;;
8399;SDS011;4237;47.030;15.396;2023-05-07T05:20:19;6.00;;;4.90;;
8399;SDS011;4237;47.030;15.396;2023-05-07T05:22:48;5.37;;;4.87;;
8399;SDS011;4237;47.030;15.396;2023-05-07T05:25:16;6.33;;;4.83;;
8399;SDS011;4237;47.030;15.396;2023-05-07T05:27:44;4.90;;;4.47;;
8399;SDS011;4237;47.030;15.396;2023-05-07T05:30:12;7.27;;;4.47;;
8399;SDS011;4237;47.030;15.396;2023-05-07T05:32:41;6.27;;;4.83;;
8399;SDS011;4237;47.030;15.396;2023-05-07T05:35:09;7.10;;;4.67;;
8399;SDS011;4237;47.030;15.396;2023-05-07T05:37:37;5.73;;;5.13;;
8399;SDS011;4237;47.030;15.396;2023-05-07T05:40:06;6.67;;;4.60;;
8399;SDS011;4237;47.030;15.396;2023-05-07T05:42:34;4.90;;;4.50;;
8399;SDS011;4237;47.030;15.396;2023-05-07T05:45:03;6.53;;;5.17;;
8399;SDS011;4237;47.030;15.396;2023-05-07T05:47:31;7.03;;;4.83;;
8399;SDS011;4237;47.030;15.396;2023-05-07T05:49:59;7.63;;;5.30;;
8399;SDS011;4237;47.030;15.396;2023-05-07T05:52:28;7.67;;;5.40;;
8399;SDS011;4237;47.030;15.396;2023-05-07T05:54:56;8.03;;;5.60;;
8399;SDS011;4237;47.030;15.396;2023-05-07T05:57:24;7.33;;;5.00;;
8399;SDS011;4237;47.030;15.396;2023-05-07T05:59:53;8.20;;;4.97;;
8399;SDS011;4237;47.030;15.396;2023-05-07T06:02:22;5.67;;;5.03;;
8399;SDS011;4237;47.030;15.396;2023-05-07T06:04:50;5.47;;;4.93;;
8399;SDS011;4237;47.030;15.396;2023-05-07T06:07:18;7.27;;;4.90;;
8399;SDS011;4237;47.030;15.396;2023-05-07T06:09:46;5.70;;;4.13;;
8399;SDS011;4237;47.030;15.396;2023-05-07T06:12:14;4.40;;;4.00;;
8399;SDS011;4237;47.030;15.396;2023-05-07T06:14:43;4.47;;;3.83;;
8399;SDS011;4237;47.030;15.396;2023-05-07T06:17:11;5.13;;;3.90;;
8399;SDS011;4237;47.030;15.396;2023-05-07T06:19:39;4.43;;;4.03;;
8399;SDS011;4237;47.030;15.396;2023-05-07T06:22:08;5.23;;;3.53;;
8399;SDS011;4237;47.030;15.396;2023-05-07T06:24:36;4.17;;;3.77;;
8399;SDS011;4237;47.030;15.396;2023-05-07T06:27:04;3.93;;;2.90;;
8399;SDS011;4237;47.030;15.396;2023-05-07T06:29:32;3.10;;;2.60;;
8399;SDS011;4237;47.030;15.396;2023-05-07T06:32:12;3.30;;;2.10;;
8399;SDS011;4237;47.030;15.396;2023-05-07T06:34:37;2.70;;;1.90;;
8399;SDS011;4237;47.030;15.396;2023-05-07T06:37:05;2.75;;;1.82;;
8399;SDS011;4237;47.030;15.396;2023-05-07T06:39:34;1.85;;;1.75;;
8399;SDS011;4237;47.030;15.396;2023-05-07T06:42:02;3.62;;;2.00;;
8399;SDS011;4237;47.030;15.396;2023-05-07T06:44:31;3.42;;;1.95;;
8399;SDS011;4237;47.030;15.396;2023-05-07T06:47:00;3.62;;;1.90;;
8399;SDS011;4237;47.030;15.396;2023-05-07T06:49:28;2.67;;;2.30;;
8399;SDS011;4237;47.030;15.396;2023-05-07T06:51:56;2.20;;;1.92;;
8399;SDS011;4237;47.030;15.396;2023-05-07T06:54:25;2.22;;;1.90;;
8399;SDS011;4237;47.030;15.396;2023-05-07T06:56:53;2.80;;;2.33;;
8399;SDS011;4237;47.030;15.396;2023-05-07T06:59:21;3.80;;;2.15;;
8399;SDS011;4237;47.030;15.396;2023-05-07T07:01:49;1.90;;;1.77;;
8399;SDS011;4237;47.030;15.396;2023-05-07T07:04:17;3.70;;;1.70;;
8399;SDS011;4237;47.030;15.396;2023-05-07T07:06:46;3.05;;;1.92;;
8399;SDS011;4237;47.030;15.396;2023-05-07T07:09:14;2.30;;;2.12;;
8399;SDS011;4237;47.030;15.396;2023-05-07T07:11:42;2.27;;;2.08;;
8399;SDS011;4237;47.030;15.396;2023-05-07T07:14:10;3.22;;;2.15;;
8399;SDS011;4237;47.030;15.396;2023-05-07T07:16:38;2.10;;;2.00;;
8399;SDS011;4237;47.030;15.396;2023-05-07T07:19:07;4.35;;;2.17;;
8399;SDS011;4237;47.030;15.396;2023-05-07T07:21:35;2.40;;;2.20;;
8399;SDS011;4237;47.030;15.396;2023-05-07T07:24:03;3.30;;;1.90;;
8399;SDS011;4237;47.030;15.396;2023-05-07T07:26:32;3.35;;;1.80;;
8399;SDS011;4237;47.030;15.396;2023-05-07T07:29:00;2.30;;;2.10;;
8399;SDS011;4237;47.030;15.396;2023-05-07T07:31:28;2.20;;;2.00;;
8399;SDS011;4237;47.030;15.396;2023-05-07T07:33:57;2.72;;;2.17;;
8399;SDS011;4237;47.030;15.396;2023-05-07T07:36:25;2.25;;;2.05;;
8399;SDS011;4237;47.030;15.396;2023-05-07T07:38:54;2.12;;;1.92;;
8399;SDS011;4237;47.030;15.396;2023-05-07T07:41:22;2.70;;;2.20;;
8399;SDS011;4237;47.030;15.396;2023-05-07T07:43:50;4.65;;;2.12;;
8399;SDS011;4237;47.030;15.396;2023-05-07T07:46:18;3.15;;;2.00;;
8399;SDS011;4237;47.030;15.396;2023-05-07T07:48:47;5.33;;;2.62;;
8399;SDS011;4237;47.030;15.396;2023-05-07T07:51:15;3.52;;;2.50;;
8399;SDS011;4237;47.030;15.396;2023-05-07T07:53:43;2.20;;;2.00;;
8399;SDS011;4237;47.030;15.396;2023-05-07T07:56:11;4.22;;;2.22;;
8399;SDS011;4237;47.030;15.396;2023-05-07T07:58:39;4.95;;;2.27;;
8399;SDS011;4237;47.030;15.396;2023-05-07T08:01:07;4.17;;;2.22;;
8399;SDS011;4237;47.030;15.396;2023-05-07T08:03:36;2.90;;;2.10;;
8399;SDS011;4237;47.030;15.396;2023-05-07T08:06:05;3.40;;;2.50;;
8399;SDS011;4237;47.030;15.396;2023-05-07T08:08:33;2.87;;;2.58;;
8399;SDS011;4237;47.030;15.396;2023-05-07T08:11:01;2.80;;;2.47;;
8399;SDS011;4237;47.030;15.396;2023-05-07T08:13:30;2.62;;;2.42;;
8399;SDS011;4237;47.030;15.396;2023-05-07T08:15:58;2.72;;;2.50;;
8399;SDS011;4237;47.030;15.396;2023-05-07T08:18:26;2.62;;;2.42;;
8399;SDS011;4237;47.030;15.396;2023-05-07T08:20:56;2.45;;;2.25;;
8399;SDS011;4237;47.030;15.396;2023-05-07T08:23:24;2.60;;;2.40;;
8399;SDS011;4237;47.030;15.396;2023-05-07T08:25:53;3.20;;;2.62;;
8399;SDS011;4237;47.030;15.396;2023-05-07T08:28:21;2.50;;;2.30;;
8399;SDS011;4237;47.030;15.396;2023-05-07T08:30:51;4.50;;;2.65;;
8399;SDS011;4237;47.030;15.396;2023-05-07T08:33:19;6.58;;;2.70;;
8399;SDS011;4237;47.030;15.396;2023-05-07T08:35:48;4.70;;;2.40;;
8399;SDS011;4237;47.030;15.396;2023-05-07T08:38:16;2.58;;;2.37;;
8399;SDS011;4237;47.030;15.396;2023-05-07T08:40:44;2.83;;;2.62;;
8399;SDS011;4237;47.030;15.396;2023-05-07T08:43:12;2.60;;;2.40;;
8399;SDS011;4237;47.030;15.396;2023-05-07T08:45:42;2.60;;;2.40;;
8399;SDS011;4237;47.030;15.396;2023-05-07T08:48:16;2.60;;;2.40;;
8399;SDS011;4237;47.030;15.396;2023-05-07T08:50:44;3.35;;;2.65;;
8399;SDS011;4237;47.030;15.396;2023-05-07T08:53:13;2.30;;;2.10;;
8399;SDS011;4237;47.030;15.396;2023-05-07T08:55:42;2.30;;;2.05;;
8399;SDS011;4237;47.030;15.396;2023-05-07T08:58:10;3.70;;;2.70;;
8399;SDS011;4237;47.030;15.396;2023-05-07T09:00:38;3.67;;;2.25;;
8399;SDS011;4237;47.030;15.396;2023-05-07T09:03:07;3.67;;;2.42;;
8399;SDS011;4237;47.030;15.396;2023-05-07T09:05:37;4.78;;;2.67;;
8399;SDS011;4237;47.030;15.396;2023-05-07T09:08:06;3.52;;;2.40;;
8399;SDS011;4237;47.030;15.396;2023-05-07T09:10:35;3.37;;;2.70;;
8399;SDS011;4237;47.030;15.396;2023-05-07T09:13:03;2.90;;;2.65;;
8399;SDS011;4237;47.030;15.396;2023-05-07T09:15:31;2.98;;;2.58;;
8399;SDS011;4237;47.030;15.396;2023-05-07T09:17:59;2.98;;;2.42;;
8399;SDS011;4237;47.030;15.396;2023-05-07T09:20:31;7.10;;;2.50;;
8399;SDS011;4237;47.030;15.396;2023-05-07T09:22:59;2.75;;;2.47;;
8399;SDS011;4237;47.030;15.396;2023-05-07T09:25:28;3.40;;;2.50;;
8399;SDS011;4237;47.030;15.396;2023-05-07T09:27:57;3.40;;;2.40;;
8399;SDS011;4237;47.030;15.396;2023-05-07T09:30:28;2.42;;;2.22;;
8399;SDS011;4237;47.030;15.396;2023-05-07T09:33:01;2.60;;;2.40;;
8399;SDS011;4237;47.030;15.396;2023-05-07T09:35:29;2.60;;;2.40;;
8399;SDS011;4237;47.030;15.396;2023-05-07T09:37:59;3.05;;;2.37;;
8399;SDS011;4237;47.030;15.396;2023-05-07T09:40:28;2.87;;;2.67;;
8399;SDS011;4237;47.030;15.396;2023-05-07T09:43:08;3.83;;;2.50;;
8399;SDS011;4237;47.030;15.396;2023-05-07T09:45:28;2.50;;;2.30;;
8399;SDS011;4237;47.030;15.396;2023-05-07T09:47:57;2.62;;;2.42;;
8399;SDS011;4237;47.030;15.396;2023-05-07T09:50:30;2.65;;;2.33;;
8399;SDS011;4237;47.030;15.396;2023-05-07T09:52:58;2.27;;;2.08;;
8399;SDS011;4237;47.030;15.396;2023-05-07T09:55:26;2.30;;;2.10;;
8399;SDS011;4237;47.030;15.396;2023-05-07T09:57:55;3.25;;;2.00;;
8399;SDS011;4237;47.030;15.396;2023-05-07T10:00:23;2.42;;;2.00;;
8399;SDS011;4237;47.030;15.396;2023-05-07T10:02:53;3.45;;;2.27;;
8399;SDS011;4237;47.030;15.396;2023-05-07T10:05:23;2.22;;;2.02;;
8399;SDS011;4237;47.030;15.396;2023-05-07T10:07:52;2.22;;;2.02;;
8399;SDS011;4237;47.030;15.396;2023-05-07T10:10:20;3.35;;;1.98;;
8399;SDS011;4237;47.030;15.396;2023-05-07T10:12:49;2.70;;;2.37;;
8399;SDS011;4237;47.030;15.396;2023-05-07T10:15:18;2.05;;;1.95;;
8399;SDS011;4237;47.030;15.396;2023-05-07T10:17:47;2.27;;;2.08;;
8399;SDS011;4237;47.030;15.396;2023-05-07T10:20:16;2.67;;;2.47;;
8399;SDS011;4237;47.030;15.396;2023-05-07T10:22:45;2.25;;;2.00;;
8399;SDS011;4237;47.030;15.396;2023-05-07T10:25:14;4.83;;;2.25;;
8399;SDS011;4237;47.030;15.396;2023-05-07T10:27:43;4.25;;;2.00;;
8399;SDS011;4237;47.030;15.396;2023-05-07T10:32:45;11.75;;;3.20;;
8399;SDS011;4237;47.030;15.396;2023-05-07T10:35:19;2.30;;;2.10;;
8399;SDS011;4237;47.030;15.396;2023-05-07T10:37:47;2.22;;;1.90;;
8399;SDS011;4237;47.030;15.396;2023-05-07T10:40:16;3.27;;;2.27;;
8399;SDS011;4237;47.030;15.396;2023-05-07T10:42:59;2.17;;;1.95;;
8399;SDS011;4237;47.030;15.396;2023-05-07T10:45:23;3.50;;;2.00;;
8399;SDS011;4237;47.030;15.396;2023-05-07T10:50:38;2.35;;;2.00;;
8399;SDS011;4237;47.030;15.396;2023-05-07T10:55:48;5.95;;;2.10;;
8399;SDS011;4237;47.030;15.396;2023-05-07T10:58:22;2.45;;;2.25;;
8399;SDS011;4237;47.030;15.396;2023-05-07T11:00:56;3.22;;;2.30;;
8399;SDS011;4237;47.030;15.396;2023-05-07T11:03:25;2.30;;;2.10;;
8399;SDS011;4237;47.030;15.396;2023-05-07T11:08:54;2.60;;;2.40;;
8399;SDS011;4237;47.030;15.396;2023-05-07T11:14:09;2.70;;;2.10;;
8399;SDS011;4237;47.030;15.396;2023-05-07T11:16:37;2.33;;;2.05;;
8399;SDS011;4237;47.030;15.396;2023-05-07T11:19:08;1.80;;;1.70;;
8399;SDS011;4237;47.030;15.396;2023-05-07T11:21:36;1.87;;;1.77;;
8399;SDS011;4237;47.030;15.396;2023-05-07T11:24:06;3.15;;;2.27;;
8399;SDS011;4237;47.030;15.396;2023-05-07T11:26:42;2.85;;;1.90;;
8399;SDS011;4237;47.030;15.396;2023-05-07T11:29:21;2.30;;;2.10;;
8399;SDS011;4237;47.030;15.396;2023-05-07T11:31:49;2.05;;;1.85;;
8399;SDS011;4237;47.030;15.396;2023-05-07T11:34:27;3.27;;;1.80;;
8399;SDS011;4237;47.030;15.396;2023-05-07T11:36:51;3.05;;;2.02;;
8399;SDS011;4237;47.030;15.396;2023-05-07T11:39:27;3.35;;;2.30;;
8399;SDS011;4237;47.030;15.396;2023-05-07T11:41:56;3.05;;;1.90;;
8399;SDS011;4237;47.030;15.396;2023-05-07T11:44:24;3.87;;;2.15;;
8399;SDS011;4237;47.030;15.396;2023-05-07T11:46:52;2.85;;;1.90;;
8399;SDS011;4237;47.030;15.396;2023-05-07T11:49:20;5.40;;;2.70;;
8399;SDS011;4237;47.030;15.396;2023-05-07T11:51:50;3.15;;;2.00;;
8399;SDS011;4237;47.030;15.396;2023-05-07T11:54:18;6.15;;;2.00;;
8399;SDS011;4237;47.030;15.396;2023-05-07T11:56:48;2.25;;;2.05;;
8399;SDS011;4237;47.030;15.396;2023-05-07T11:59:17;3.05;;;1.95;;
8399;SDS011;4237;47.030;15.396;2023-05-07T12:01:46;2.22;;;2.02;;
8399;SDS011;4237;47.030;15.396;2023-05-07T12:04:18;2.20;;;2.00;;
8399;SDS011;4237;47.030;15.396;2023-05-07T12:06:44;2.22;;;2.02;;
8399;SDS011;4237;47.030;15.396;2023-05-07T12:09:12;2.25;;;2.05;;
8399;SDS011;4237;47.030;15.396;2023-05-07T12:11:40;4.07;;;1.83;;
8399;SDS011;4237;47.030;15.396;2023-05-07T12:14:10;2.10;;;2.00;;
8399;SDS011;4237;47.030;15.396;2023-05-07T12:16:39;2.10;;;1.90;;
8399;SDS011;4237;47.030;15.396;2023-05-07T12:19:08;2.50;;;2.13;;
8399;SDS011;4237;47.030;15.396;2023-05-07T12:21:38;4.90;;;2.20;;
8399;SDS011;4237;47.030;15.396;2023-05-07T12:24:07;2.63;;;2.10;;
8399;SDS011;4237;47.030;15.396;2023-05-07T12:26:38;2.23;;;1.80;;
8399;SDS011;4237;47.030;15.396;2023-05-07T12:29:10;2.75;;;1.85;;
8399;SDS011;4237;47.030;15.396;2023-05-07T12:31:40;2.33;;;2.00;;
8399;SDS011;4237;47.030;15.396;2023-05-07T12:34:08;4.90;;;2.50;;
8399;SDS011;4237;47.030;15.396;2023-05-07T12:36:42;2.95;;;2.33;;
8399;SDS011;4237;47.030;15.396;2023-05-07T12:39:10;2.50;;;2.30;;
8399;SDS011;4237;47.030;15.396;2023-05-07T12:41:54;3.33;;;1.97;;
8399;SDS011;4237;47.030;15.396;2023-05-07T12:44:23;4.40;;;2.20;;
8399;SDS011;4237;47.030;15.396;2023-05-07T12:46:51;3.27;;;1.80;;
8399;SDS011;4237;47.030;15.396;2023-05-07T12:49:19;2.53;;;2.20;;
8399;SDS011;4237;47.030;15.396;2023-05-07T12:51:48;2.67;;;2.47;;
8399;SDS011;4237;47.030;15.396;2023-05-07T12:54:32;3.03;;;2.30;;
8399;SDS011;4237;47.030;15.396;2023-05-07T12:57:06;2.47;;;2.27;;
8399;SDS011;4237;47.030;15.396;2023-05-07T12:59:31;2.70;;;2.50;;
8399;SDS011;4237;47.030;15.396;2023-05-07T13:02:00;4.33;;;2.30;;
8399;SDS011;4237;47.030;15.396;2023-05-07T13:04:28;2.43;;;2.20;;
8399;SDS011;4237;47.030;15.396;2023-05-07T13:06:56;2.47;;;2.27;;
8399;SDS011;4237;47.030;15.396;2023-05-07T13:09:24;2.90;;;2.40;;
8399;SDS011;4237;47.030;15.396;2023-05-07T13:11:53;4.73;;;2.70;;
8399;SDS011;4237;47.030;15.396;2023-05-07T13:14:21;3.27;;;2.97;;
8399;SDS011;4237;47.030;15.396;2023-05-07T13:16:49;3.43;;;2.80;;
8399;SDS011;4237;47.030;15.396;2023-05-07T13:19:17;5.20;;;3.47;;
8399;SDS011;4237;47.030;15.396;2023-05-07T13:21:45;3.13;;;2.20;;
8399;SDS011;4237;47.030;15.396;2023-05-07T13:24:13;8.40;;;1.87;;
8399;SDS011;4237;47.030;15.396;2023-05-07T13:26:42;9.80;;;2.40;;
8399;SDS011;4237;47.030;15.396;2023-05-07T13:29:10;4.73;;;2.13;;
8399;SDS011;4237;47.030;15.396;2023-05-07T13:31:38;4.10;;;2.10;;
8399;SDS011;4237;47.030;15.396;2023-05-07T13:34:08;5.83;;;2.37;;
8399;SDS011;4237;47.030;15.396;2023-05-07T13:36:36;4.00;;;1.80;;
8399;SDS011;4237;47.030;15.396;2023-05-07T13:39:06;13.13;;;5.57;;
8399;SDS011;4237;47.030;15.396;2023-05-07T13:41:34;42.53;;;19.23;;
8399;SDS011;4237;47.030;15.396;2023-05-07T13:44:02;16.00;;;6.47;;
8399;SDS011;4237;47.030;15.396;2023-05-07T13:46:31;12.20;;;4.03;;
8399;SDS011;4237;47.030;15.396;2023-05-07T13:48:59;13.40;;;4.03;;
8399;SDS011;4237;47.030;15.396;2023-05-07T13:51:27;15.50;;;6.33;;
8399;SDS011;4237;47.030;15.396;2023-05-07T13:53:55;9.83;;;3.93;;
8399;SDS011;4237;47.030;15.396;2023-05-07T13:56:25;4.20;;;2.00;;
8399;SDS011;4237;47.030;15.396;2023-05-07T13:58:55;8.50;;;2.77;;
8399;SDS011;4237;47.030;15.396;2023-05-07T14:01:23;6.73;;;2.63;;
8399;SDS011;4237;47.030;15.396;2023-05-07T14:03:51;5.47;;;2.70;;
8399;SDS011;4237;47.030;15.396;2023-05-07T14:06:20;6.20;;;4.20;;
8399;SDS011;4237;47.030;15.396;2023-05-07T14:08:49;14.60;;;7.10;;
8399;SDS011;4237;47.030;15.396;2023-05-07T14:11:17;9.57;;;8.43;;
8399;SDS011;4237;47.030;15.396;2023-05-07T14:13:46;10.47;;;8.87;;
8399;SDS011;4237;47.030;15.396;2023-05-07T14:16:14;12.13;;;9.90;;
8399;SDS011;4237;47.030;15.396;2023-05-07T14:18:43;12.77;;;10.00;;
8399;SDS011;4237;47.030;15.396;2023-05-07T14:21:11;12.53;;;10.63;;
8399;SDS011;4237;47.030;15.396;2023-05-07T14:23:39;11.63;;;8.93;;
8399;SDS011;4237;47.030;15.396;2023-05-07T14:26:07;10.97;;;8.00;;
8399;SDS011;4237;47.030;15.396;2023-05-07T14:28:36;14.03;;;9.23;;
8399;SDS011;4237;47.030;15.396;2023-05-07T14:31:05;11.43;;;9.23;;
8399;SDS011;4237;47.030;15.396;2023-05-07T14:33:34;11.07;;;9.03;;
8399;SDS011;4237;47.030;15.396;2023-05-07T14:36:02;9.70;;;8.80;;
8399;SDS011;4237;47.030;15.396;2023-05-07T14:38:30;10.43;;;9.00;;
8399;SDS011;4237;47.030;15.396;2023-05-07T14:41:00;10.00;;;8.90;;
8399;SDS011;4237;47.030;15.396;2023-05-07T14:43:28;9.60;;;8.60;;
8399;SDS011;4237;47.030;15.396;2023-05-07T14:45:56;11.20;;;9.70;;
8399;SDS011;4237;47.030;15.396;2023-05-07T14:48:24;11.20;;;10.10;;
8399;SDS011;4237;47.030;15.396;2023-05-07T14:50:52;10.70;;;8.90;;
8399;SDS011;4237;47.030;15.396;2023-05-07T14:53:20;12.77;;;9.27;;
8399;SDS011;4237;47.030;15.396;2023-05-07T14:55:49;12.40;;;10.00;;
8399;SDS011;4237;47.030;15.396;2023-05-07T14:58:17;11.17;;;10.07;;
8399;SDS011;4237;47.030;15.396;2023-05-07T15:00:45;10.50;;;9.40;;
8399;SDS011;4237;47.030;15.396;2023-05-07T15:03:13;9.80;;;8.70;;
8399;SDS011;4237;47.030;15.396;2023-05-07T15:05:42;9.73;;;8.73;;
8399;SDS011;4237;47.030;15.396;2023-05-07T15:08:10;10.33;;;8.57;;
8399;SDS011;4237;47.030;15.396;2023-05-07T15:10:38;10.87;;;8.87;;
8399;SDS011;4237;47.030;15.396;2023-05-07T15:13:10;12.67;;;9.67;;
8399;SDS011;4237;47.030;15.396;2023-05-07T15:15:39;10.57;;;9.03;;
8399;SDS011;4237;47.030;15.396;2023-05-07T15:18:07;10.10;;;9.03;;
8399;SDS011;4237;47.030;15.396;2023-05-07T15:20:36;10.33;;;8.90;;
8399;SDS011;4237;47.030;15.396;2023-05-07T15:23:05;9.57;;;8.63;;